sensor_id;sensor_type;location;lat;lon;timestamp;noise_LAeq;noise_LA_min;noise_LA_max;noise_LA01;noise_LA95
67320;Laerm;57665;51.436;5.978;2022-07-29T00:00:03;39.36;38.27;40.42;;
67320;Laerm;57665;51.436;5.978;2022-07-29T00:00:14;41.00;38.32;48.48;;
67320;Laerm;57665;51.436;5.978;2022-07-29T00:00:24;39.36;38.12;40.26;;
67320;Laerm;57665;51.436;5.978;2022-07-29T00:00:35;39.25;38.33;40.09;;
67320;Laerm;57665;51.436;5.978;2022-07-29T00:00:45;39.25;38.19;40.29;;
67320;Laerm;57665;51.436;5.978;2022-07-29T00:00:55;39.23;38.13;40.28;;
67320;Laerm;57665;51.436;5.978;2022-07-29T00:01:05;39.52;37.87;40.79;;
67320;Laerm;57665;51.436;5.978;2022-07-29T00:01:15;39.64;38.26;40.88;;
67320;Laerm;57665;51.436;5.978;2022-07-29T00:01:26;39.32;38.24;40.33;;
67320;Laerm;57665;51.436;5.978;2022-07-29T00:01:36;40.59;38.26;44.23;;
67320;Laerm;57665;51.436;5.978;2022-07-29T00:01:46;47.84;39.18;56.99;;
67320;Laerm;57665;51.436;5.978;2022-07-29T00:01:57;39.27;38.19;40.74;;
67320;Laerm;57665;51.436;5.978;2022-07-29T00:02:07;39.28;38.23;40.54;;
67320;Laerm;57665;51.436;5.978;2022-07-29T00:02:17;39.24;38.05;40.23;;
67320;Laerm;57665;51.436;5.978;2022-07-29T00:02:28;39.23;37.86;40.14;;
67320;Laerm;57665;51.436;5.978;2022-07-29T00:02:38;39.28;38.34;40.36;;
67320;Laerm;57665;51.436;5.978;2022-07-29T00:02:48;39.28;37.91;40.29;;
67320;Laerm;57665;51.436;5.978;2022-07-29T00:02:58;39.20;38.14;40.10;;
67320;Laerm;57665;51.436;5.978;2022-07-29T00:03:08;39.24;38.11;40.50;;
67320;Laerm;57665;51.436;5.978;2022-07-29T00:03:19;39.23;38.01;40.22;;
67320;Laerm;57665;51.436;5.978;2022-07-29T00:03:29;39.21;38.12;40.14;;
67320;Laerm;57665;51.436;5.978;2022-07-29T00:03:39;39.22;38.21;40.49;;
67320;Laerm;57665;51.436;5.978;2022-07-29T00:03:49;39.33;38.18;40.44;;
67320;Laerm;57665;51.436;5.978;2022-07-29T00:04:00;39.18;38.26;40.06;;
67320;Laerm;57665;51.436;5.978;2022-07-29T00:04:10;39.26;38.17;40.45;;
67320;Laerm;57665;51.436;5.978;2022-07-29T00:04:20;39.22;38.31;40.18;;
67320;Laerm;57665;51.436;5.978;2022-07-29T00:04:30;39.23;38.08;40.06;;
67320;Laerm;57665;51.436;5.978;2022-07-29T00:04:43;39.27;38.28;40.32;;
67320;Laerm;57665;51.436;5.978;2022-07-29T00:04:53;39.32;38.18;40.67;;
67320;Laerm;57665;51.436;5.978;2022-07-29T00:05:04;39.25;38.08;40.19;;
67320;Laerm;57665;51.436;5.978;2022-07-29T00:05:14;39.28;38.23;40.47;;
67320;Laerm;57665;51.436;5.978;2022-07-29T00:05:24;39.27;38.29;40.41;;
67320;Laerm;57665;51.436;5.978;2022-07-29T00:05:35;39.28;38.20;40.20;;
67320;Laerm;57665;51.436;5.978;2022-07-29T00:05:45;39.21;38.01;40.00;;
67320;Laerm;57665;51.436;5.978;2022-07-29T00:05:55;39.28;38.12;40.28;;
67320;Laerm;57665;51.436;5.978;2022-07-29T00:06:05;39.26;38.38;40.42;;
67320;Laerm;57665;51.436;5.978;2022-07-29T00:06:16;39.22;38.08;40.44;;
67320;Laerm;57665;51.436;5.978;2022-07-29T00:06:26;39.28;37.77;40.22;;
67320;Laerm;57665;51.436;5.978;2022-07-29T00:06:36;39.25;37.97;40.25;;
67320;Laerm;57665;51.436;5.978;2022-07-29T00:06:46;39.32;38.06;40.34;;
67320;Laerm;57665;51.436;5.978;2022-07-29T00:06:57;39.27;37.91;40.23;;
67320;Laerm;57665;51.436;5.978;2022-07-29T00:07:07;39.27;37.92;40.63;;
67320;Laerm;57665;51.436;5.978;2022-07-29T00:07:17;39.28;38.03;40.23;;
67320;Laerm;57665;51.436;5.978;2022-07-29T00:07:27;39.27;38.12;40.16;;
67320;Laerm;57665;51.436;5.978;2022-07-29T00:07:38;39.28;38.30;40.27;;
67320;Laerm;57665;51.436;5.978;2022-07-29T00:07:48;39.24;38.39;40.27;;
67320;Laerm;57665;51.436;5.978;2022-07-29T00:07:58;39.25;38.40;40.16;;
67320;Laerm;57665;51.436;5.978;2022-07-29T00:08:08;39.33;38.35;40.42;;
67320;Laerm;57665;51.436;5.978;2022-07-29T00:08:19;39.22;37.86;40.16;;
67320;Laerm;57665;51.436;5.978;2022-07-29T00:08:29;39.20;38.24;40.05;;
67320;Laerm;57665;51.436;5.978;2022-07-29T00:08:40;39.24;38.07;40.11;;
67320;Laerm;57665;51.436;5.978;2022-07-29T00:08:50;39.32;38.18;40.26;;
67320;Laerm;57665;51.436;5.978;2022-07-29T00:09:00;39.24;38.04;40.04;;
67320;Laerm;57665;51.436;5.978;2022-07-29T00:09:10;39.32;38.37;40.31;;
67320;Laerm;57665;51.436;5.978;2022-07-29T00:09:21;39.20;38.20;40.28;;
67320;Laerm;57665;51.436;5.978;2022-07-29T00:09:31;39.25;38.25;40.00;;
67320;Laerm;57665;51.436;5.978;2022-07-29T00:09:41;39.35;37.86;40.31;;
67320;Laerm;57665;51.436;5.978;2022-07-29T00:09:51;40.57;38.01;44.71;;
67320;Laerm;57665;51.436;5.978;2022-07-29T00:10:03;39.37;38.30;40.42;;
67320;Laerm;57665;51.436;5.978;2022-07-29T00:10:13;39.28;37.98;40.38;;
67320;Laerm;57665;51.436;5.978;2022-07-29T00:10:23;39.32;38.06;40.48;;
67320;Laerm;57665;51.436;5.978;2022-07-29T00:10:34;39.22;37.94;40.41;;
67320;Laerm;57665;51.436;5.978;2022-07-29T00:10:44;39.28;38.27;40.26;;
67320;Laerm;57665;51.436;5.978;2022-07-29T00:10:54;39.25;38.06;40.40;;
67320;Laerm;57665;51.436;5.978;2022-07-29T00:11:05;39.23;38.37;40.06;;
67320;Laerm;57665;51.436;5.978;2022-07-29T00:11:15;39.36;38.42;40.51;;
67320;Laerm;57665;51.436;5.978;2022-07-29T00:11:25;40.25;38.39;48.64;;
67320;Laerm;57665;51.436;5.978;2022-07-29T00:11:35;39.20;38.20;40.39;;
67320;Laerm;57665;51.436;5.978;2022-07-29T00:11:46;39.29;38.11;40.60;;
67320;Laerm;57665;51.436;5.978;2022-07-29T00:11:56;39.21;38.04;40.47;;
67320;Laerm;57665;51.436;5.978;2022-07-29T00:12:08;39.30;38.17;40.36;;
67320;Laerm;57665;51.436;5.978;2022-07-29T00:12:20;39.30;38.18;40.27;;
67320;Laerm;57665;51.436;5.978;2022-07-29T00:12:30;39.32;38.23;40.14;;
67320;Laerm;57665;51.436;5.978;2022-07-29T00:12:40;39.26;38.03;40.05;;
67320;Laerm;57665;51.436;5.978;2022-07-29T00:12:51;39.23;38.29;40.14;;
67320;Laerm;57665;51.436;5.978;2022-07-29T00:13:01;39.30;38.30;40.28;;
67320;Laerm;57665;51.436;5.978;2022-07-29T00:13:11;39.26;38.21;40.29;;
67320;Laerm;57665;51.436;5.978;2022-07-29T00:13:21;39.28;38.32;40.17;;
67320;Laerm;57665;51.436;5.978;2022-07-29T00:13:32;39.30;38.47;40.53;;
67320;Laerm;57665;51.436;5.978;2022-07-29T00:13:42;39.27;38.18;40.33;;
67320;Laerm;57665;51.436;5.978;2022-07-29T00:13:52;39.33;38.17;40.42;;
67320;Laerm;57665;51.436;5.978;2022-07-29T00:14:02;39.34;38.19;40.56;;
67320;Laerm;57665;51.436;5.978;2022-07-29T00:14:13;39.31;38.07;40.24;;
67320;Laerm;57665;51.436;5.978;2022-07-29T00:14:23;39.30;38.20;40.39;;
67320;Laerm;57665;51.436;5.978;2022-07-29T00:14:33;39.36;38.40;40.31;;
67320;Laerm;57665;51.436;5.978;2022-07-29T00:14:43;39.32;38.43;40.32;;
67320;Laerm;57665;51.436;5.978;2022-07-29T00:14:54;39.26;38.40;40.29;;
67320;Laerm;57665;51.436;5.978;2022-07-29T00:15:05;39.29;37.93;40.30;;
67320;Laerm;57665;51.436;5.978;2022-07-29T00:15:15;39.29;38.26;40.30;;
67320;Laerm;57665;51.436;5.978;2022-07-29T00:15:25;39.25;38.28;40.34;;
67320;Laerm;57665;51.436;5.978;2022-07-29T00:15:36;39.29;38.27;40.14;;
67320;Laerm;57665;51.436;5.978;2022-07-29T00:15:46;39.25;38.22;40.49;;
67320;Laerm;57665;51.436;5.978;2022-07-29T00:15:56;39.28;38.11;40.37;;
67320;Laerm;57665;51.436;5.978;2022-07-29T00:16:06;39.31;38.40;40.30;;
67320;Laerm;57665;51.436;5.978;2022-07-29T00:16:16;39.37;37.94;40.53;;
67320;Laerm;57665;51.436;5.978;2022-07-29T00:16:27;39.38;38.30;40.44;;
67320;Laerm;57665;51.436;5.978;2022-07-29T00:16:37;39.37;38.13;40.31;;
67320;Laerm;57665;51.436;5.978;2022-07-29T00:16:47;39.34;37.97;40.46;;
67320;Laerm;57665;51.436;5.978;2022-07-29T00:16:57;39.32;38.05;40.36;;
67320;Laerm;57665;51.436;5.978;2022-07-29T00:17:07;39.33;38.20;40.43;;
67320;Laerm;57665;51.436;5.978;2022-07-29T00:17:18;39.40;38.48;40.88;;
67320;Laerm;57665;51.436;5.978;2022-07-29T00:17:28;39.91;38.35;46.24;;
67320;Laerm;57665;51.436;5.978;2022-07-29T00:17:38;39.78;38.37;43.87;;
67320;Laerm;57665;51.436;5.978;2022-07-29T00:17:48;39.94;38.49;43.52;;
67320;Laerm;57665;51.436;5.978;2022-07-29T00:17:58;42.13;38.40;53.00;;
67320;Laerm;57665;51.436;5.978;2022-07-29T00:18:09;41.44;38.49;52.17;;
67320;Laerm;57665;51.436;5.978;2022-07-29T00:18:19;40.82;38.35;50.00;;
67320;Laerm;57665;51.436;5.978;2022-07-29T00:18:29;41.50;38.26;51.28;;
67320;Laerm;57665;51.436;5.978;2022-07-29T00:18:39;41.76;38.14;53.72;;
67320;Laerm;57665;51.436;5.978;2022-07-29T00:18:49;42.51;38.63;53.68;;
67320;Laerm;57665;51.436;5.978;2022-07-29T00:19:00;39.98;38.04;51.79;;
67320;Laerm;57665;51.436;5.978;2022-07-29T00:19:10;39.49;38.40;45.83;;
67320;Laerm;57665;51.436;5.978;2022-07-29T00:19:20;39.42;38.21;40.49;;
67320;Laerm;57665;51.436;5.978;2022-07-29T00:19:30;39.47;38.42;40.44;;
67320;Laerm;57665;51.436;5.978;2022-07-29T00:19:41;39.58;38.72;40.79;;
67320;Laerm;57665;51.436;5.978;2022-07-29T00:19:51;39.56;38.51;40.74;;
67320;Laerm;57665;51.436;5.978;2022-07-29T00:20:01;39.42;38.47;40.41;;
67320;Laerm;57665;51.436;5.978;2022-07-29T00:20:11;39.42;38.40;40.60;;
67320;Laerm;57665;51.436;5.978;2022-07-29T00:20:22;39.39;38.40;40.46;;
67320;Laerm;57665;51.436;5.978;2022-07-29T00:20:32;39.32;38.25;40.20;;
67320;Laerm;57665;51.436;5.978;2022-07-29T00:20:42;39.33;38.40;40.28;;
67320;Laerm;57665;51.436;5.978;2022-07-29T00:20:52;39.37;38.19;40.66;;
67320;Laerm;57665;51.436;5.978;2022-07-29T00:21:02;39.38;38.12;40.42;;
67320;Laerm;57665;51.436;5.978;2022-07-29T00:21:13;39.42;38.35;40.31;;
67320;Laerm;57665;51.436;5.978;2022-07-29T00:21:23;39.37;38.28;40.44;;
67320;Laerm;57665;51.436;5.978;2022-07-29T00:21:33;39.35;38.30;40.33;;
67320;Laerm;57665;51.436;5.978;2022-07-29T00:21:43;39.37;38.20;40.61;;
67320;Laerm;57665;51.436;5.978;2022-07-29T00:21:54;39.37;38.31;40.25;;
67320;Laerm;57665;51.436;5.978;2022-07-29T00:22:04;39.37;38.33;40.29;;
67320;Laerm;57665;51.436;5.978;2022-07-29T00:22:14;39.36;38.37;40.24;;
67320;Laerm;57665;51.436;5.978;2022-07-29T00:22:24;39.33;38.43;40.17;;
67320;Laerm;57665;51.436;5.978;2022-07-29T00:22:36;39.36;38.48;40.43;;
67320;Laerm;57665;51.436;5.978;2022-07-29T00:22:47;39.40;38.30;40.41;;
67320;Laerm;57665;51.436;5.978;2022-07-29T00:22:57;39.39;38.28;40.35;;
67320;Laerm;57665;51.436;5.978;2022-07-29T00:23:07;39.31;37.69;40.17;;
67320;Laerm;57665;51.436;5.978;2022-07-29T00:23:17;39.34;38.27;40.29;;
67320;Laerm;57665;51.436;5.978;2022-07-29T00:23:27;39.33;38.47;40.37;;
67320;Laerm;57665;51.436;5.978;2022-07-29T00:23:38;39.31;38.24;40.19;;
67320;Laerm;57665;51.436;5.978;2022-07-29T00:23:48;39.37;38.44;40.37;;
67320;Laerm;57665;51.436;5.978;2022-07-29T00:23:58;39.34;38.51;40.20;;
67320;Laerm;57665;51.436;5.978;2022-07-29T00:24:08;39.33;38.30;40.26;;
67320;Laerm;57665;51.436;5.978;2022-07-29T00:24:18;39.31;38.24;40.34;;
67320;Laerm;57665;51.436;5.978;2022-07-29T00:24:29;39.31;38.41;40.32;;
67320;Laerm;57665;51.436;5.978;2022-07-29T00:24:39;39.29;38.15;40.29;;
67320;Laerm;57665;51.436;5.978;2022-07-29T00:24:49;39.34;38.37;40.50;;
67320;Laerm;57665;51.436;5.978;2022-07-29T00:24:59;39.29;38.15;40.33;;
67320;Laerm;57665;51.436;5.978;2022-07-29T00:25:09;39.27;38.24;40.20;;
67320;Laerm;57665;51.436;5.978;2022-07-29T00:25:22;39.27;38.14;40.37;;
67320;Laerm;57665;51.436;5.978;2022-07-29T00:25:32;39.28;38.18;40.34;;
67320;Laerm;57665;51.436;5.978;2022-07-29T00:25:42;39.31;38.21;40.35;;
67320;Laerm;57665;51.436;5.978;2022-07-29T00:25:52;39.26;37.85;40.12;;
67320;Laerm;57665;51.436;5.978;2022-07-29T00:26:02;39.30;37.59;40.30;;
67320;Laerm;57665;51.436;5.978;2022-07-29T00:26:13;39.35;38.44;40.37;;
67320;Laerm;57665;51.436;5.978;2022-07-29T00:26:23;39.36;37.96;40.39;;
67320;Laerm;57665;51.436;5.978;2022-07-29T00:26:33;39.38;38.39;40.21;;
67320;Laerm;57665;51.436;5.978;2022-07-29T00:26:43;39.33;38.05;40.33;;
67320;Laerm;57665;51.436;5.978;2022-07-29T00:26:53;39.40;38.22;40.20;;
67320;Laerm;57665;51.436;5.978;2022-07-29T00:27:04;39.34;37.85;40.29;;
67320;Laerm;57665;51.436;5.978;2022-07-29T00:27:14;39.35;38.08;40.38;;
67320;Laerm;57665;51.436;5.978;2022-07-29T00:27:24;39.34;38.50;40.36;;
67320;Laerm;57665;51.436;5.978;2022-07-29T00:27:35;39.46;38.37;41.41;;
67320;Laerm;57665;51.436;5.978;2022-07-29T00:27:45;39.61;38.63;41.50;;
67320;Laerm;57665;51.436;5.978;2022-07-29T00:27:56;40.20;38.72;45.29;;
67320;Laerm;57665;51.436;5.978;2022-07-29T00:28:06;44.12;39.73;50.16;;
67320;Laerm;57665;51.436;5.978;2022-07-29T00:28:16;46.01;42.52;56.02;;
67320;Laerm;57665;51.436;5.978;2022-07-29T00:28:26;45.91;43.34;51.73;;
67320;Laerm;57665;51.436;5.978;2022-07-29T00:28:36;47.89;44.40;58.77;;
67320;Laerm;57665;51.436;5.978;2022-07-29T00:28:47;48.47;45.29;54.87;;
67320;Laerm;57665;51.436;5.978;2022-07-29T00:28:58;50.16;46.70;60.47;;
67320;Laerm;57665;51.436;5.978;2022-07-29T00:29:08;55.86;50.94;61.66;;
67320;Laerm;57665;51.436;5.978;2022-07-29T00:29:18;55.76;53.10;61.11;;
67320;Laerm;57665;51.436;5.978;2022-07-29T00:29:28;53.34;50.71;57.59;;
67320;Laerm;57665;51.436;5.978;2022-07-29T00:29:39;52.26;49.74;56.89;;
67320;Laerm;57665;51.436;5.978;2022-07-29T00:29:49;53.44;50.77;57.55;;
67320;Laerm;57665;51.436;5.978;2022-07-29T00:29:59;53.76;51.87;57.08;;
67320;Laerm;57665;51.436;5.978;2022-07-29T00:30:09;54.29;52.40;58.69;;
67320;Laerm;57665;51.436;5.978;2022-07-29T00:30:20;56.63;53.53;62.01;;
67320;Laerm;57665;51.436;5.978;2022-07-29T00:30:30;58.80;56.76;64.01;;
67320;Laerm;57665;51.436;5.978;2022-07-29T00:30:40;59.90;57.77;67.39;;
67320;Laerm;57665;51.436;5.978;2022-07-29T00:30:52;56.61;54.51;61.53;;
67320;Laerm;57665;51.436;5.978;2022-07-29T00:31:03;55.93;54.51;57.94;;
67320;Laerm;57665;51.436;5.978;2022-07-29T00:31:13;54.71;52.06;58.62;;
67320;Laerm;57665;51.436;5.978;2022-07-29T00:31:23;52.32;50.36;54.82;;
67320;Laerm;57665;51.436;5.978;2022-07-29T00:31:33;51.82;50.10;56.03;;
67320;Laerm;57665;51.436;5.978;2022-07-29T00:31:43;50.18;47.76;58.13;;
67320;Laerm;57665;51.436;5.978;2022-07-29T00:31:54;47.89;46.14;51.36;;
67320;Laerm;57665;51.436;5.978;2022-07-29T00:32:04;47.49;45.59;50.96;;
67320;Laerm;57665;51.436;5.978;2022-07-29T00:32:14;47.37;45.58;51.56;;
67320;Laerm;57665;51.436;5.978;2022-07-29T00:32:24;47.19;45.30;50.48;;
67320;Laerm;57665;51.436;5.978;2022-07-29T00:32:35;46.64;44.79;50.01;;
67320;Laerm;57665;51.436;5.978;2022-07-29T00:32:45;45.41;43.71;47.37;;
67320;Laerm;57665;51.436;5.978;2022-07-29T00:32:55;44.18;42.29;47.19;;
67320;Laerm;57665;51.436;5.978;2022-07-29T00:33:05;43.03;41.59;47.00;;
67320;Laerm;57665;51.436;5.978;2022-07-29T00:33:15;42.68;41.35;45.11;;
67320;Laerm;57665;51.436;5.978;2022-07-29T00:33:26;42.42;40.86;45.22;;
67320;Laerm;57665;51.436;5.978;2022-07-29T00:33:36;41.13;39.26;44.44;;
67320;Laerm;57665;51.436;5.978;2022-07-29T00:33:46;40.19;39.00;44.23;;
67320;Laerm;57665;51.436;5.978;2022-07-29T00:33:56;40.25;38.96;42.61;;
67320;Laerm;57665;51.436;5.978;2022-07-29T00:34:06;40.21;39.03;45.19;;
67320;Laerm;57665;51.436;5.978;2022-07-29T00:34:37;39.69;38.54;43.37;;
67320;Laerm;57665;51.436;5.978;2022-07-29T00:35:06;39.37;38.20;42.50;;
67320;Laerm;57665;51.436;5.978;2022-07-29T00:35:34;39.49;38.07;41.79;;
67320;Laerm;57665;51.436;5.978;2022-07-29T00:35:54;39.16;38.05;42.13;;
67320;Laerm;57665;51.436;5.978;2022-07-29T00:36:04;39.07;38.01;42.93;;
67320;Laerm;57665;51.436;5.978;2022-07-29T00:36:14;38.99;37.81;40.82;;
67320;Laerm;57665;51.436;5.978;2022-07-29T00:36:24;38.98;38.01;39.87;;
67320;Laerm;57665;51.436;5.978;2022-07-29T00:36:35;39.04;37.88;41.28;;
67320;Laerm;57665;51.436;5.978;2022-07-29T00:36:45;39.08;38.18;40.18;;
67320;Laerm;57665;51.436;5.978;2022-07-29T00:36:55;39.06;38.09;40.10;;
67320;Laerm;57665;51.436;5.978;2022-07-29T00:37:05;39.04;37.82;39.81;;
67320;Laerm;57665;51.436;5.978;2022-07-29T00:37:16;39.17;38.21;40.95;;
67320;Laerm;57665;51.436;5.978;2022-07-29T00:37:26;39.36;38.31;40.42;;
67320;Laerm;57665;51.436;5.978;2022-07-29T00:37:36;39.14;38.02;40.00;;
67320;Laerm;57665;51.436;5.978;2022-07-29T00:37:46;39.04;37.94;40.37;;
67320;Laerm;57665;51.436;5.978;2022-07-29T00:37:56;38.99;37.76;40.11;;
67320;Laerm;57665;51.436;5.978;2022-07-29T00:38:07;39.08;38.26;40.03;;
67320;Laerm;57665;51.436;5.978;2022-07-29T00:38:18;39.13;38.03;40.04;;
67320;Laerm;57665;51.436;5.978;2022-07-29T00:38:29;39.13;38.00;40.81;;
67320;Laerm;57665;51.436;5.978;2022-07-29T00:38:39;39.14;38.08;41.97;;
67320;Laerm;57665;51.436;5.978;2022-07-29T00:38:51;39.02;37.84;40.07;;
67320;Laerm;57665;51.436;5.978;2022-07-29T00:39:01;39.12;37.93;40.35;;
67320;Laerm;57665;51.436;5.978;2022-07-29T00:39:12;39.30;38.22;43.24;;
67320;Laerm;57665;51.436;5.978;2022-07-29T00:39:22;39.20;37.87;40.55;;
67320;Laerm;57665;51.436;5.978;2022-07-29T00:39:32;39.06;37.92;40.25;;
67320;Laerm;57665;51.436;5.978;2022-07-29T00:39:43;39.11;38.06;40.29;;
67320;Laerm;57665;51.436;5.978;2022-07-29T00:39:53;39.06;38.03;40.22;;
67320;Laerm;57665;51.436;5.978;2022-07-29T00:40:03;39.10;37.94;40.08;;
67320;Laerm;57665;51.436;5.978;2022-07-29T00:40:14;39.09;37.98;40.27;;
67320;Laerm;57665;51.436;5.978;2022-07-29T00:40:24;39.13;38.17;40.72;;
67320;Laerm;57665;51.436;5.978;2022-07-29T00:40:34;39.16;38.02;40.34;;
67320;Laerm;57665;51.436;5.978;2022-07-29T00:40:45;39.13;38.07;40.31;;
67320;Laerm;57665;51.436;5.978;2022-07-29T00:40:55;39.11;38.24;40.28;;
67320;Laerm;57665;51.436;5.978;2022-07-29T00:41:06;39.16;38.09;40.29;;
67320;Laerm;57665;51.436;5.978;2022-07-29T00:41:16;39.07;38.10;40.06;;
67320;Laerm;57665;51.436;5.978;2022-07-29T00:41:26;39.03;37.96;40.19;;
67320;Laerm;57665;51.436;5.978;2022-07-29T00:41:36;39.01;38.01;40.32;;
67320;Laerm;57665;51.436;5.978;2022-07-29T00:41:46;39.27;38.29;40.40;;
67320;Laerm;57665;51.436;5.978;2022-07-29T00:41:57;39.23;38.02;40.33;;
67320;Laerm;57665;51.436;5.978;2022-07-29T00:42:07;39.19;38.28;40.26;;
67320;Laerm;57665;51.436;5.978;2022-07-29T00:42:17;40.90;38.18;59.74;;
67320;Laerm;57665;51.436;5.978;2022-07-29T00:42:28;39.19;38.19;40.27;;
67320;Laerm;57665;51.436;5.978;2022-07-29T00:42:42;39.23;38.25;43.94;;
67320;Laerm;57665;51.436;5.978;2022-07-29T00:42:52;39.18;37.78;40.12;;
67320;Laerm;57665;51.436;5.978;2022-07-29T00:43:02;39.20;38.18;43.79;;
67320;Laerm;57665;51.436;5.978;2022-07-29T00:43:13;39.13;38.08;40.12;;
67320;Laerm;57665;51.436;5.978;2022-07-29T00:43:23;39.10;38.15;40.27;;
67320;Laerm;57665;51.436;5.978;2022-07-29T00:43:34;39.21;38.18;40.38;;
67320;Laerm;57665;51.436;5.978;2022-07-29T00:43:44;39.20;37.82;40.36;;
67320;Laerm;57665;51.436;5.978;2022-07-29T00:43:54;39.22;38.30;40.42;;
67320;Laerm;57665;51.436;5.978;2022-07-29T00:44:07;39.78;38.28;46.54;;
67320;Laerm;57665;51.436;5.978;2022-07-29T00:44:18;39.85;38.60;42.83;;
67320;Laerm;57665;51.436;5.978;2022-07-29T00:44:28;40.87;39.03;45.97;;
67320;Laerm;57665;51.436;5.978;2022-07-29T00:44:39;48.20;42.84;55.11;;
67320;Laerm;57665;51.436;5.978;2022-07-29T00:44:49;55.04;49.97;59.49;;
67320;Laerm;57665;51.436;5.978;2022-07-29T00:44:59;60.08;56.51;64.70;;
67320;Laerm;57665;51.436;5.978;2022-07-29T00:45:10;64.00;61.98;66.33;;
67320;Laerm;57665;51.436;5.978;2022-07-29T00:45:20;64.34;62.51;66.14;;
67320;Laerm;57665;51.436;5.978;2022-07-29T00:45:31;65.42;62.83;68.67;;
67320;Laerm;57665;51.436;5.978;2022-07-29T00:45:42;66.32;64.45;68.86;;
67320;Laerm;57665;51.436;5.978;2022-07-29T00:45:52;65.58;64.25;67.67;;
67320;Laerm;57665;51.436;5.978;2022-07-29T00:46:02;64.96;63.01;67.16;;
67320;Laerm;57665;51.436;5.978;2022-07-29T00:46:12;62.55;60.52;65.63;;
67320;Laerm;57665;51.436;5.978;2022-07-29T00:46:23;62.55;60.87;65.27;;
67320;Laerm;57665;51.436;5.978;2022-07-29T00:46:33;60.35;57.05;63.43;;
67320;Laerm;57665;51.436;5.978;2022-07-29T00:46:43;57.82;54.75;63.37;;
67320;Laerm;57665;51.436;5.978;2022-07-29T00:46:53;54.46;52.20;57.35;;
67320;Laerm;57665;51.436;5.978;2022-07-29T00:47:03;54.63;52.56;57.92;;
67320;Laerm;57665;51.436;5.978;2022-07-29T00:47:14;52.96;51.27;54.99;;
67320;Laerm;57665;51.436;5.978;2022-07-29T00:47:24;51.90;50.41;60.17;;
67320;Laerm;57665;51.436;5.978;2022-07-29T00:47:34;51.24;49.42;58.50;;
67320;Laerm;57665;51.436;5.978;2022-07-29T00:47:45;50.02;48.23;55.36;;
67320;Laerm;57665;51.436;5.978;2022-07-29T00:47:55;48.50;47.11;50.24;;
67320;Laerm;57665;51.436;5.978;2022-07-29T00:48:05;48.89;47.57;50.62;;
67320;Laerm;57665;51.436;5.978;2022-07-29T00:48:16;48.91;47.70;50.31;;
67320;Laerm;57665;51.436;5.978;2022-07-29T00:48:26;49.36;47.77;54.83;;
67320;Laerm;57665;51.436;5.978;2022-07-29T00:48:37;50.44;49.15;51.82;;
67320;Laerm;57665;51.436;5.978;2022-07-29T00:48:48;49.76;48.32;51.29;;
67320;Laerm;57665;51.436;5.978;2022-07-29T00:48:58;48.17;46.44;53.26;;
67320;Laerm;57665;51.436;5.978;2022-07-29T00:49:08;48.05;46.67;56.10;;
67320;Laerm;57665;51.436;5.978;2022-07-29T00:49:18;46.50;44.67;48.13;;
67320;Laerm;57665;51.436;5.978;2022-07-29T00:49:28;45.71;43.52;56.65;;
67320;Laerm;57665;51.436;5.978;2022-07-29T00:49:39;44.43;43.10;45.97;;
67320;Laerm;57665;51.436;5.978;2022-07-29T00:49:50;44.31;43.14;47.86;;
67320;Laerm;57665;51.436;5.978;2022-07-29T00:50:00;43.56;41.84;45.20;;
67320;Laerm;57665;51.436;5.978;2022-07-29T00:50:11;43.57;42.14;52.34;;
67320;Laerm;57665;51.436;5.978;2022-07-29T00:50:21;41.95;40.35;44.13;;
67320;Laerm;57665;51.436;5.978;2022-07-29T00:50:32;41.32;40.25;42.64;;
67320;Laerm;57665;51.436;5.978;2022-07-29T00:50:43;40.80;39.58;42.82;;
67320;Laerm;57665;51.436;5.978;2022-07-29T00:50:53;40.26;39.06;43.08;;
67320;Laerm;57665;51.436;5.978;2022-07-29T00:51:03;40.33;38.92;44.53;;
67320;Laerm;57665;51.436;5.978;2022-07-29T00:51:14;40.36;39.36;42.28;;
67320;Laerm;57665;51.436;5.978;2022-07-29T00:51:25;39.91;38.90;41.30;;
67320;Laerm;57665;51.436;5.978;2022-07-29T00:51:36;39.76;38.56;41.64;;
67320;Laerm;57665;51.436;5.978;2022-07-29T00:51:47;39.66;38.58;40.93;;
67320;Laerm;57665;51.436;5.978;2022-07-29T00:51:58;39.60;38.65;41.66;;
67320;Laerm;57665;51.436;5.978;2022-07-29T00:52:11;39.56;38.59;41.82;;
67320;Laerm;57665;51.436;5.978;2022-07-29T00:52:21;39.50;38.12;40.99;;
67320;Laerm;57665;51.436;5.978;2022-07-29T00:52:32;39.35;38.48;42.06;;
67320;Laerm;57665;51.436;5.978;2022-07-29T00:52:43;39.26;38.23;41.47;;
67320;Laerm;57665;51.436;5.978;2022-07-29T00:52:53;39.28;38.05;44.06;;
67320;Laerm;57665;51.436;5.978;2022-07-29T00:53:05;39.19;38.19;41.28;;
67320;Laerm;57665;51.436;5.978;2022-07-29T00:53:15;39.23;38.05;41.88;;
67320;Laerm;57665;51.436;5.978;2022-07-29T00:53:25;39.13;38.19;42.53;;
67320;Laerm;57665;51.436;5.978;2022-07-29T00:53:36;39.07;38.22;40.65;;
67320;Laerm;57665;51.436;5.978;2022-07-29T00:53:47;39.10;38.21;40.66;;
67320;Laerm;57665;51.436;5.978;2022-07-29T00:54:01;39.16;38.10;43.17;;
67320;Laerm;57665;51.436;5.978;2022-07-29T00:54:11;39.20;38.18;40.34;;
67320;Laerm;57665;51.436;5.978;2022-07-29T00:54:22;39.83;38.21;52.21;;
67320;Laerm;57665;51.436;5.978;2022-07-29T00:54:33;39.19;38.27;41.00;;
67320;Laerm;57665;51.436;5.978;2022-07-29T00:54:43;39.22;38.32;42.50;;
67320;Laerm;57665;51.436;5.978;2022-07-29T00:54:53;39.09;38.12;40.47;;
67320;Laerm;57665;51.436;5.978;2022-07-29T00:55:05;39.11;38.13;40.82;;
67320;Laerm;57665;51.436;5.978;2022-07-29T00:55:16;39.12;37.97;40.20;;
67320;Laerm;57665;51.436;5.978;2022-07-29T00:55:26;39.08;38.10;39.90;;
67320;Laerm;57665;51.436;5.978;2022-07-29T00:55:37;39.14;38.01;40.28;;
67320;Laerm;57665;51.436;5.978;2022-07-29T00:55:47;39.14;38.15;40.34;;
67320;Laerm;57665;51.436;5.978;2022-07-29T00:55:58;39.03;37.69;40.21;;
67320;Laerm;57665;51.436;5.978;2022-07-29T00:56:08;39.01;37.96;40.93;;
67320;Laerm;57665;51.436;5.978;2022-07-29T00:56:18;39.13;37.94;42.58;;
67320;Laerm;57665;51.436;5.978;2022-07-29T00:56:29;39.12;38.21;40.07;;
67320;Laerm;57665;51.436;5.978;2022-07-29T00:56:39;39.12;38.11;41.09;;
67320;Laerm;57665;51.436;5.978;2022-07-29T00:56:50;39.07;38.05;40.20;;
67320;Laerm;57665;51.436;5.978;2022-07-29T00:57:00;39.06;38.21;40.16;;
67320;Laerm;57665;51.436;5.978;2022-07-29T00:57:11;39.43;38.22;40.54;;
67320;Laerm;57665;51.436;5.978;2022-07-29T00:57:21;39.23;38.16;40.89;;
67320;Laerm;57665;51.436;5.978;2022-07-29T00:57:32;39.79;38.36;53.67;;
67320;Laerm;57665;51.436;5.978;2022-07-29T00:57:43;40.28;38.38;56.28;;
67320;Laerm;57665;51.436;5.978;2022-07-29T00:57:54;39.31;38.20;43.20;;
67320;Laerm;57665;51.436;5.978;2022-07-29T00:58:04;39.19;38.41;39.94;;
67320;Laerm;57665;51.436;5.978;2022-07-29T00:58:16;39.27;38.28;40.29;;
67320;Laerm;57665;51.436;5.978;2022-07-29T00:58:26;39.17;38.22;42.38;;
67320;Laerm;57665;51.436;5.978;2022-07-29T00:58:36;39.17;38.30;40.06;;
67320;Laerm;57665;51.436;5.978;2022-07-29T00:58:46;39.20;38.02;40.57;;
67320;Laerm;57665;51.436;5.978;2022-07-29T00:58:58;39.14;38.16;40.26;;
67320;Laerm;57665;51.436;5.978;2022-07-29T00:59:08;39.11;38.18;40.31;;
67320;Laerm;57665;51.436;5.978;2022-07-29T00:59:18;39.17;38.07;40.23;;